YV1419 SVVL-SVVG
Flight info
| Callsign | YV1419 |
|---|---|
| Flight time | 0h 42m |
| Altitude | 12000 |
| Route | VRA W7 ERIXO W41 EVG |
| Aircraft | C208/L-SDC/C |
Departure
| Time | 2026-04-26 02:05 |
|---|---|
| Airport | Dr. Antonio Nicolás Briceño Airport (SVVL) |
Arrival
| Time | 2026-04-26 02:47 |
|---|---|
| Airport | Juan Pablo Pérez Alfonso Airport (SVVG) |
| Time | Latitude | Longitude | Altitude | Speed | Heading |
|---|---|---|---|---|---|
| 2026-04-26 01:59 | 9.33990 | -70.58522 | 1887 ft | 0 kts | 289° |
| 2026-04-26 02:01 | 9.33990 | -70.58523 | 1887 ft | 1 kts | 276° |
| 2026-04-26 02:01 | 9.33980 | -70.58520 | 1888 ft | 4 kts | 115° |
| 2026-04-26 02:02 | 9.33946 | -70.58479 | 1887 ft | 10 kts | 182° |
| 2026-04-26 02:02 | 9.33867 | -70.58501 | 1898 ft | 14 kts | 198° |
| 2026-04-26 02:02 | 9.33755 | -70.58536 | 1905 ft | 20 kts | 198° |
| 2026-04-26 02:02 | 9.33616 | -70.58578 | 1922 ft | 22 kts | 197° |
| 2026-04-26 02:03 | 9.33460 | -70.58626 | 1933 ft | 24 kts | 196° |
| 2026-04-26 02:03 | 9.33299 | -70.58677 | 1947 ft | 22 kts | 198° |
| 2026-04-26 02:03 | 9.33218 | -70.58714 | 1952 ft | 7 kts | 153° |
| 2026-04-26 02:03 | 9.33263 | -70.58687 | 1949 ft | 15 kts | 17° |
| 2026-04-26 02:04 | 9.33473 | -70.58624 | 1932 ft | 55 kts | 17° |
| 2026-04-26 02:04 | 9.33973 | -70.58468 | 1890 ft | 91 kts | 17° |
| 2026-04-26 02:04 | 9.34627 | -70.58267 | 1997 ft | 103 kts | 17° |
| 2026-04-26 02:04 | 9.35311 | -70.58082 | 2264 ft | 100 kts | 11° |
| 2026-04-26 02:05 | 9.36006 | -70.58004 | 2474 ft | 103 kts | 6° |
| 2026-04-26 02:05 | 9.36744 | -70.57867 | 2619 ft | 117 kts | 16° |
| 2026-04-26 02:05 | 9.37500 | -70.57419 | 2718 ft | 134 kts | 25° |
| 2026-04-26 02:05 | 9.38417 | -70.57105 | 2825 ft | 144 kts | 17° |
| 2026-04-26 02:06 | 9.39398 | -70.56796 | 2925 ft | 151 kts | 18° |
| 2026-04-26 02:06 | 9.40415 | -70.56481 | 3070 ft | 153 kts | 18° |
| 2026-04-26 02:06 | 9.41433 | -70.56167 | 3254 ft | 152 kts | 18° |
| 2026-04-26 02:06 | 9.42445 | -70.55860 | 3446 ft | 151 kts | 18° |
| 2026-04-26 02:07 | 9.43446 | -70.55555 | 3640 ft | 150 kts | 18° |
| 2026-04-26 02:07 | 9.44468 | -70.55491 | 3830 ft | 151 kts | 341° |
| 2026-04-26 02:07 | 9.45234 | -70.56178 | 4027 ft | 150 kts | 304° |
| 2026-04-26 02:07 | 9.45834 | -70.57032 | 4230 ft | 148 kts | 307° |
| 2026-04-26 02:08 | 9.46455 | -70.57870 | 4431 ft | 149 kts | 306° |
| 2026-04-26 02:08 | 9.47067 | -70.58718 | 4633 ft | 149 kts | 306° |
| 2026-04-26 02:08 | 9.47688 | -70.59575 | 4835 ft | 151 kts | 306° |
| 2026-04-26 02:08 | 9.48309 | -70.60436 | 5038 ft | 151 kts | 307° |
| 2026-04-26 02:09 | 9.48931 | -70.61286 | 5238 ft | 150 kts | 306° |
| 2026-04-26 02:09 | 9.49550 | -70.62135 | 5434 ft | 149 kts | 307° |
| 2026-04-26 02:09 | 9.50165 | -70.62970 | 5634 ft | 148 kts | 306° |
| 2026-04-26 02:09 | 9.50757 | -70.63824 | 5832 ft | 149 kts | 299° |
| 2026-04-26 02:10 | 9.50954 | -70.64824 | 6015 ft | 149 kts | 258° |
| 2026-04-26 02:10 | 9.50458 | -70.65714 | 6213 ft | 145 kts | 231° |
| 2026-04-26 02:10 | 9.49871 | -70.66546 | 6420 ft | 146 kts | 235° |
| 2026-04-26 02:10 | 9.49306 | -70.67404 | 6617 ft | 147 kts | 235° |
| 2026-04-26 02:11 | 9.48733 | -70.68263 | 6818 ft | 146 kts | 235° |
| 2026-04-26 02:11 | 9.48166 | -70.69113 | 7016 ft | 146 kts | 235° |
| 2026-04-26 02:11 | 9.47602 | -70.69971 | 7215 ft | 147 kts | 235° |
| 2026-04-26 02:11 | 9.47034 | -70.70832 | 7412 ft | 147 kts | 235° |
| 2026-04-26 02:12 | 9.46461 | -70.71692 | 7615 ft | 147 kts | 235° |
| 2026-04-26 02:12 | 9.45885 | -70.72556 | 7819 ft | 148 kts | 235° |
| 2026-04-26 02:12 | 9.45312 | -70.73421 | 8019 ft | 147 kts | 236° |
| 2026-04-26 02:12 | 9.44742 | -70.74285 | 8219 ft | 148 kts | 235° |
| 2026-04-26 02:13 | 9.44166 | -70.75154 | 8416 ft | 148 kts | 234° |
| 2026-04-26 02:13 | 9.43597 | -70.76006 | 8612 ft | 148 kts | 236° |
| 2026-04-26 02:13 | 9.43022 | -70.76876 | 8811 ft | 149 kts | 234° |
| 2026-04-26 02:13 | 9.42445 | -70.77741 | 9019 ft | 148 kts | 235° |
| 2026-04-26 02:14 | 9.41869 | -70.78608 | 9213 ft | 148 kts | 235° |
| 2026-04-26 02:14 | 9.41297 | -70.79473 | 9410 ft | 147 kts | 235° |
| 2026-04-26 02:14 | 9.40731 | -70.80329 | 9605 ft | 146 kts | 235° |
| 2026-04-26 02:14 | 9.40165 | -70.81180 | 9803 ft | 146 kts | 235° |
| 2026-04-26 02:15 | 9.39601 | -70.82033 | 9988 ft | 146 kts | 235° |
| 2026-04-26 02:15 | 9.39006 | -70.82927 | 10002 ft | 158 kts | 236° |
| 2026-04-26 02:15 | 9.38386 | -70.83876 | 10060 ft | 164 kts | 236° |
| 2026-04-26 02:15 | 9.37757 | -70.84830 | 10186 ft | 161 kts | 235° |
| 2026-04-26 02:16 | 9.37133 | -70.85770 | 10310 ft | 160 kts | 235° |
| 2026-04-26 02:16 | 9.36508 | -70.86703 | 10408 ft | 161 kts | 236° |
| 2026-04-26 02:16 | 9.35882 | -70.87651 | 10511 ft | 163 kts | 236° |
| 2026-04-26 02:16 | 9.35248 | -70.88607 | 10615 ft | 164 kts | 236° |
| 2026-04-26 02:17 | 9.34607 | -70.89567 | 10719 ft | 165 kts | 236° |
| 2026-04-26 02:17 | 9.33972 | -70.90526 | 10817 ft | 163 kts | 236° |
| 2026-04-26 02:17 | 9.33339 | -70.91484 | 10917 ft | 164 kts | 236° |
| 2026-04-26 02:17 | 9.32704 | -70.92440 | 11016 ft | 164 kts | 236° |
| 2026-04-26 02:18 | 9.32081 | -70.93380 | 11114 ft | 163 kts | 236° |
| 2026-04-26 02:18 | 9.31445 | -70.94334 | 11215 ft | 165 kts | 236° |
| 2026-04-26 02:18 | 9.30800 | -70.95302 | 11312 ft | 164 kts | 235° |
| 2026-04-26 02:18 | 9.30170 | -70.96246 | 11413 ft | 164 kts | 236° |
| 2026-04-26 02:19 | 9.29532 | -70.97206 | 11514 ft | 165 kts | 236° |
| 2026-04-26 02:19 | 9.28895 | -70.98172 | 11613 ft | 165 kts | 236° |
| 2026-04-26 02:19 | 9.28253 | -70.99135 | 11715 ft | 165 kts | 236° |
| 2026-04-26 02:19 | 9.27611 | -71.00101 | 11815 ft | 165 kts | 236° |
| 2026-04-26 02:20 | 9.26972 | -71.01067 | 11915 ft | 166 kts | 236° |
| 2026-04-26 02:20 | 9.26329 | -71.02032 | 11998 ft | 165 kts | 236° |
| 2026-04-26 02:20 | 9.25677 | -71.03017 | 12002 ft | 172 kts | 236° |
| 2026-04-26 02:20 | 9.25006 | -71.04028 | 12012 ft | 174 kts | 236° |
| 2026-04-26 02:21 | 9.24324 | -71.05059 | 12010 ft | 177 kts | 236° |
| 2026-04-26 02:21 | 9.23630 | -71.06106 | 12009 ft | 179 kts | 236° |
| 2026-04-26 02:21 | 9.22933 | -71.07159 | 12009 ft | 180 kts | 236° |
| 2026-04-26 02:21 | 9.22225 | -71.08217 | 12009 ft | 182 kts | 236° |
| 2026-04-26 02:22 | 9.21516 | -71.09284 | 12009 ft | 183 kts | 236° |
| 2026-04-26 02:22 | 9.20813 | -71.10343 | 12006 ft | 181 kts | 236° |
| 2026-04-26 02:22 | 9.20114 | -71.11397 | 12005 ft | 179 kts | 236° |
| 2026-04-26 02:22 | 9.19412 | -71.12454 | 12000 ft | 181 kts | 236° |
| 2026-04-26 02:23 | 9.18712 | -71.13512 | 11998 ft | 181 kts | 236° |
| 2026-04-26 02:23 | 9.18006 | -71.14562 | 11997 ft | 181 kts | 236° |
| 2026-04-26 02:23 | 9.17301 | -71.15614 | 11996 ft | 181 kts | 236° |
| 2026-04-26 02:23 | 9.16611 | -71.16654 | 11998 ft | 177 kts | 236° |
| 2026-04-26 02:24 | 9.15922 | -71.17687 | 11993 ft | 178 kts | 236° |
| 2026-04-26 02:24 | 9.15231 | -71.18730 | 11998 ft | 179 kts | 236° |
| 2026-04-26 02:24 | 9.14543 | -71.19762 | 12000 ft | 178 kts | 236° |
| 2026-04-26 02:24 | 9.13850 | -71.20802 | 12001 ft | 178 kts | 236° |
| 2026-04-26 02:25 | 9.13163 | -71.21838 | 12003 ft | 177 kts | 236° |
| 2026-04-26 02:25 | 9.12477 | -71.22872 | 11999 ft | 177 kts | 236° |
| 2026-04-26 02:25 | 9.11788 | -71.23906 | 12000 ft | 177 kts | 236° |
| 2026-04-26 02:25 | 9.11100 | -71.24939 | 12001 ft | 177 kts | 236° |
| 2026-04-26 02:26 | 9.10412 | -71.25974 | 12004 ft | 176 kts | 236° |
| 2026-04-26 02:26 | 9.09958 | -71.26654 | 12003 ft | 176 kts | 236° |
| 2026-04-26 02:26 | 9.09261 | -71.27706 | 11831 ft | 184 kts | 236° |
| 2026-04-26 02:26 | 9.08537 | -71.28793 | 11659 ft | 188 kts | 236° |
| 2026-04-26 02:27 | 9.07801 | -71.29895 | 11490 ft | 189 kts | 236° |
| 2026-04-26 02:27 | 9.07063 | -71.31001 | 11315 ft | 190 kts | 236° |
| 2026-04-26 02:27 | 9.06323 | -71.32113 | 11142 ft | 191 kts | 236° |
| 2026-04-26 02:27 | 9.05580 | -71.33229 | 10968 ft | 191 kts | 236° |
| 2026-04-26 02:28 | 9.04833 | -71.34352 | 10794 ft | 192 kts | 236° |
| 2026-04-26 02:28 | 9.04082 | -71.35480 | 10620 ft | 194 kts | 236° |
| 2026-04-26 02:28 | 9.03336 | -71.36597 | 10449 ft | 194 kts | 236° |
| 2026-04-26 02:28 | 9.02581 | -71.37733 | 10275 ft | 195 kts | 236° |
| 2026-04-26 02:29 | 9.01825 | -71.38869 | 10098 ft | 194 kts | 236° |
| 2026-04-26 02:29 | 9.01072 | -71.39999 | 9921 ft | 193 kts | 236° |
| 2026-04-26 02:29 | 9.00322 | -71.41123 | 9749 ft | 192 kts | 236° |
| 2026-04-26 02:29 | 8.99576 | -71.42243 | 9570 ft | 192 kts | 236° |
| 2026-04-26 02:30 | 8.98831 | -71.43361 | 9396 ft | 191 kts | 236° |
| 2026-04-26 02:30 | 8.98085 | -71.44480 | 9220 ft | 191 kts | 236° |
| 2026-04-26 02:30 | 8.97344 | -71.45593 | 9045 ft | 191 kts | 236° |
| 2026-04-26 02:30 | 8.96604 | -71.46705 | 8873 ft | 190 kts | 236° |
| 2026-04-26 02:31 | 8.95865 | -71.47815 | 8698 ft | 190 kts | 236° |
| 2026-04-26 02:31 | 8.95124 | -71.48923 | 8525 ft | 190 kts | 236° |
| 2026-04-26 02:31 | 8.94384 | -71.50030 | 8348 ft | 190 kts | 236° |
| 2026-04-26 02:31 | 8.93646 | -71.51135 | 8173 ft | 190 kts | 236° |
| 2026-04-26 02:32 | 8.92916 | -71.52229 | 7998 ft | 190 kts | 236° |
| 2026-04-26 02:32 | 8.92183 | -71.53332 | 7823 ft | 188 kts | 236° |
| 2026-04-26 02:32 | 8.91454 | -71.54427 | 7649 ft | 187 kts | 236° |
| 2026-04-26 02:32 | 8.90726 | -71.55518 | 7470 ft | 187 kts | 236° |
| 2026-04-26 02:33 | 8.89999 | -71.56604 | 7296 ft | 186 kts | 236° |
| 2026-04-26 02:33 | 8.89278 | -71.57686 | 7121 ft | 185 kts | 236° |
| 2026-04-26 02:33 | 8.88559 | -71.58764 | 6945 ft | 184 kts | 236° |
| 2026-04-26 02:33 | 8.87840 | -71.59841 | 6767 ft | 185 kts | 236° |
| 2026-04-26 02:34 | 8.87125 | -71.60910 | 6595 ft | 183 kts | 236° |
| 2026-04-26 02:34 | 8.86417 | -71.61976 | 6416 ft | 182 kts | 236° |
| 2026-04-26 02:34 | 8.85710 | -71.63031 | 6244 ft | 181 kts | 236° |
| 2026-04-26 02:34 | 8.85007 | -71.64088 | 6068 ft | 181 kts | 236° |
| 2026-04-26 02:35 | 8.84303 | -71.65142 | 5893 ft | 181 kts | 236° |
| 2026-04-26 02:35 | 8.83598 | -71.66196 | 5718 ft | 181 kts | 236° |
| 2026-04-26 02:35 | 8.82895 | -71.67250 | 5543 ft | 181 kts | 236° |
| 2026-04-26 02:35 | 8.82192 | -71.68304 | 5368 ft | 181 kts | 236° |
| 2026-04-26 02:36 | 8.81495 | -71.69349 | 5193 ft | 178 kts | 236° |
| 2026-04-26 02:36 | 8.80799 | -71.70387 | 5018 ft | 178 kts | 236° |
| 2026-04-26 02:36 | 8.80110 | -71.71417 | 4844 ft | 179 kts | 236° |
| 2026-04-26 02:36 | 8.79415 | -71.72459 | 4667 ft | 178 kts | 236° |
| 2026-04-26 02:37 | 8.78724 | -71.73493 | 4494 ft | 177 kts | 236° |
| 2026-04-26 02:37 | 8.78037 | -71.74522 | 4319 ft | 177 kts | 236° |
| 2026-04-26 02:37 | 8.77350 | -71.75552 | 4144 ft | 177 kts | 236° |
| 2026-04-26 02:37 | 8.76660 | -71.76585 | 3968 ft | 176 kts | 236° |
| 2026-04-26 02:38 | 8.75974 | -71.77610 | 3794 ft | 176 kts | 236° |
| 2026-04-26 02:38 | 8.75245 | -71.78598 | 3618 ft | 175 kts | 229° |
| 2026-04-26 02:38 | 8.74439 | -71.79505 | 3440 ft | 172 kts | 226° |
| 2026-04-26 02:38 | 8.73583 | -71.80347 | 3263 ft | 171 kts | 222° |
| 2026-04-26 02:39 | 8.72677 | -71.81122 | 3086 ft | 170 kts | 218° |
| 2026-04-26 02:39 | 8.71728 | -71.81826 | 2910 ft | 168 kts | 214° |
| 2026-04-26 02:39 | 8.70740 | -71.82462 | 2734 ft | 169 kts | 210° |
| 2026-04-26 02:39 | 8.69719 | -71.83022 | 2605 ft | 164 kts | 206° |
| 2026-04-26 02:40 | 8.68700 | -71.83491 | 2599 ft | 158 kts | 202° |
| 2026-04-26 02:40 | 8.67682 | -71.83882 | 2593 ft | 155 kts | 199° |
| 2026-04-26 02:40 | 8.66658 | -71.84200 | 2592 ft | 154 kts | 195° |
| 2026-04-26 02:40 | 8.65630 | -71.84451 | 2594 ft | 150 kts | 191° |
| 2026-04-26 02:41 | 8.64612 | -71.84632 | 2591 ft | 147 kts | 188° |
| 2026-04-26 02:41 | 8.63598 | -71.84750 | 2590 ft | 146 kts | 185° |
| 2026-04-26 02:41 | 8.62597 | -71.84757 | 2593 ft | 146 kts | 174° |
| 2026-04-26 02:41 | 8.61595 | -71.84603 | 2593 ft | 145 kts | 164° |
| 2026-04-26 02:42 | 8.60760 | -71.84059 | 2586 ft | 144 kts | 132° |
| 2026-04-26 02:42 | 8.60302 | -71.83171 | 2596 ft | 144 kts | 107° |
| 2026-04-26 02:42 | 8.60286 | -71.82186 | 2611 ft | 137 kts | 77° |
| 2026-04-26 02:42 | 8.60368 | -71.81784 | 2609 ft | 134 kts | 81° |
| 2026-04-26 02:43 | 8.60622 | -71.80085 | 2459 ft | 116 kts | 82° |
| 2026-04-26 02:43 | 8.60735 | -71.79274 | 2303 ft | 116 kts | 81° |
| 2026-04-26 02:43 | 8.60844 | -71.78479 | 2150 ft | 113 kts | 83° |
| 2026-04-26 02:44 | 8.60951 | -71.77692 | 2000 ft | 113 kts | 82° |
| 2026-04-26 02:44 | 8.61059 | -71.76917 | 1852 ft | 112 kts | 82° |
| 2026-04-26 02:44 | 8.61167 | -71.76134 | 1702 ft | 113 kts | 82° |
| 2026-04-26 02:44 | 8.61281 | -71.75349 | 1552 ft | 113 kts | 82° |
| 2026-04-26 02:45 | 8.61390 | -71.74561 | 1401 ft | 113 kts | 82° |
| 2026-04-26 02:45 | 8.61498 | -71.73775 | 1252 ft | 113 kts | 82° |
| 2026-04-26 02:45 | 8.61611 | -71.72989 | 1101 ft | 113 kts | 82° |
| 2026-04-26 02:45 | 8.61722 | -71.72201 | 951 ft | 113 kts | 82° |
| 2026-04-26 02:46 | 8.61830 | -71.71411 | 799 ft | 113 kts | 82° |
| 2026-04-26 02:46 | 8.61938 | -71.70646 | 651 ft | 106 kts | 82° |
| 2026-04-26 02:46 | 8.62042 | -71.69919 | 513 ft | 103 kts | 82° |
| 2026-04-26 02:46 | 8.62143 | -71.69214 | 419 ft | 99 kts | 82° |
| 2026-04-26 02:47 | 8.62237 | -71.68543 | 305 ft | 90 kts | 83° |
| 2026-04-26 02:47 | 8.62315 | -71.67979 | 278 ft | 72 kts | 81° |
| 2026-04-26 02:47 | 8.62372 | -71.67570 | 278 ft | 43 kts | 81° |
| 2026-04-26 02:47 | 8.62409 | -71.67303 | 279 ft | 39 kts | 82° |
| 2026-04-26 02:48 | 8.62450 | -71.67017 | 280 ft | 44 kts | 82° |
| 2026-04-26 02:48 | 8.62494 | -71.66701 | 278 ft | 47 kts | 82° |
| 2026-04-26 02:48 | 8.62528 | -71.66452 | 279 ft | 26 kts | 82° |
| 2026-04-26 02:48 | 8.62511 | -71.66342 | 279 ft | 14 kts | 154° |
| 2026-04-26 02:49 | 8.62434 | -71.66328 | 279 ft | 7 kts | 171° |
| 2026-04-26 02:49 | 8.62389 | -71.66295 | 278 ft | 13 kts | 94° |
| 2026-04-26 02:49 | 8.62328 | -71.66263 | 278 ft | 2 kts | 175° |
| 2026-04-26 02:49 | 8.62327 | -71.66263 | 278 ft | 0 kts | 175° |